createdAt,value
2023-01-08T00:01:10.177Z,100333.59
2023-01-08T00:03:38.113Z,100332.81
2023-01-08T00:06:07.104Z,100325.31
2023-01-08T00:08:34.247Z,100324.34
2023-01-08T00:11:01.192Z,100318.97
2023-01-08T00:13:27.865Z,100320.53
2023-01-08T00:15:55.185Z,100321.81
2023-01-08T00:18:22.113Z,100332.91
2023-01-08T00:20:48.942Z,100334.59
2023-01-08T00:23:19.950Z,100316.94
2023-01-08T00:25:46.843Z,100320.97
2023-01-08T00:28:15.155Z,100315.13
2023-01-08T00:30:42.158Z,100303.88
2023-01-08T00:33:09.829Z,100307.25
2023-01-08T00:35:38.681Z,100297.03
2023-01-08T00:38:05.860Z,100289.34
2023-01-08T00:40:33.580Z,100292.00
2023-01-08T00:43:00.252Z,100281.59
2023-01-08T00:45:26.709Z,100295.75
2023-01-08T00:47:53.164Z,100288.63
2023-01-08T00:50:19.671Z,100292.03
2023-01-08T00:52:46.112Z,100287.34
2023-01-08T00:55:12.677Z,100281.28
2023-01-08T00:57:40.102Z,100278.66
2023-01-08T01:00:10.102Z,100275.81
2023-01-08T01:02:37.226Z,100268.28
2023-01-08T01:05:04.941Z,100266.53
2023-01-08T01:07:33.281Z,100257.84
2023-01-08T01:09:59.796Z,100264.13
2023-01-08T01:12:26.274Z,100266.63
2023-01-08T01:14:52.931Z,100262.09
2023-01-08T01:17:19.341Z,100269.78
2023-01-08T01:19:45.797Z,100265.19
2023-01-08T01:22:12.275Z,100269.91
2023-01-08T01:24:38.822Z,100266.72
2023-01-08T01:27:05.504Z,100262.50
2023-01-08T01:29:32.117Z,100261.22
2023-01-08T01:31:58.778Z,100255.19
2023-01-08T01:34:25.237Z,100246.97
2023-01-08T01:36:51.711Z,100252.00
2023-01-08T01:39:19.909Z,100263.16
2023-01-08T01:41:47.175Z,100257.84
2023-01-08T01:44:52.369Z,100261.03
2023-01-08T01:47:30.401Z,100255.00
2023-01-08T01:50:00.834Z,100252.44
2023-01-08T01:52:30.536Z,100243.47
2023-01-08T01:54:58.502Z,100231.06
2023-01-08T01:57:26.394Z,100229.66
2023-01-08T01:59:55.093Z,100239.72
2023-01-08T02:02:23.001Z,100238.63
2023-01-08T02:04:50.203Z,100239.88
2023-01-08T02:07:49.168Z,100224.16
2023-01-08T02:10:29.675Z,100227.75
2023-01-08T02:13:04.016Z,100228.91
2023-01-08T02:16:09.048Z,100212.06
2023-01-08T02:18:46.294Z,100214.53
2023-01-08T02:21:36.329Z,100207.00
2023-01-08T02:24:27.245Z,100198.72
2023-01-08T02:26:57.168Z,100188.94
2023-01-08T02:29:26.086Z,100187.53
2023-01-08T02:31:52.689Z,100194.53
2023-01-08T02:34:19.189Z,100187.59
2023-01-08T02:36:48.307Z,100189.44
2023-01-08T02:39:24.115Z,100188.50
2023-01-08T02:42:17.666Z,100189.34
2023-01-08T02:45:07.578Z,100184.47
2023-01-08T02:47:39.320Z,100175.25
2023-01-08T02:50:32.622Z,100168.22
2023-01-08T02:53:22.501Z,100172.53
2023-01-08T02:55:53.856Z,100160.44
2023-01-08T02:58:23.411Z,100155.34
2023-01-08T03:00:50.809Z,100155.94
2023-01-08T03:03:27.348Z,100150.69
2023-01-08T03:06:06.251Z,100143.25
2023-01-08T03:08:42.799Z,100144.34
2023-01-08T03:11:18.591Z,100148.94
2023-01-08T03:14:00.765Z,100145.63
2023-01-08T03:16:34.588Z,100146.25
2023-01-08T03:19:32.727Z,100156.59
2023-01-08T03:22:02.343Z,100149.91
2023-01-08T03:24:33.192Z,100135.63
2023-01-08T03:27:04.042Z,100133.22
2023-01-08T03:29:31.860Z,100139.09
2023-01-08T03:32:05.061Z,100134.50
2023-01-08T03:34:35.017Z,100132.44
2023-01-08T03:37:07.631Z,100130.56
2023-01-08T03:39:40.141Z,100122.59
2023-01-08T03:42:10.015Z,100120.97
2023-01-08T03:44:36.594Z,100112.78
2023-01-08T03:47:04.120Z,100117.63
2023-01-08T03:49:30.906Z,100123.97
2023-01-08T03:51:57.486Z,100128.38
2023-01-08T03:54:29.383Z,100142.09
2023-01-08T03:56:55.887Z,100133.16
2023-01-08T03:59:22.330Z,100128.38
2023-01-08T04:01:49.066Z,100137.75
2023-01-08T04:04:16.252Z,100135.56
2023-01-08T04:06:43.093Z,100135.81
2023-01-08T04:09:10.212Z,100130.00
2023-01-08T04:11:36.674Z,100130.91
2023-01-08T04:14:03.428Z,100123.84
2023-01-08T04:16:29.912Z,100125.53
2023-01-08T04:18:56.382Z,100124.56
2023-01-08T04:21:22.789Z,100132.97
2023-01-08T04:23:49.435Z,100128.69
2023-01-08T04:26:15.935Z,100125.97
2023-01-08T04:28:42.367Z,100124.75
2023-01-08T04:31:10.011Z,100121.03
2023-01-08T04:33:36.747Z,100110.44
2023-01-08T04:36:04.327Z,100103.91
2023-01-08T04:38:31.046Z,100102.91
2023-01-08T04:40:58.920Z,100099.00
2023-01-08T04:43:26.139Z,100096.53
2023-01-08T04:45:52.776Z,100095.56
2023-01-08T04:48:19.266Z,100085.09
2023-01-08T04:50:45.740Z,100087.81
2023-01-08T04:53:12.223Z,100098.59
2023-01-08T04:55:39.826Z,100098.59
2023-01-08T04:58:06.405Z,100095.25
2023-01-08T05:00:32.987Z,100097.03
2023-01-08T05:02:59.447Z,100088.00
2023-01-08T05:05:26.053Z,100087.34
2023-01-08T05:07:52.540Z,100083.88
2023-01-08T05:10:19.275Z,100085.94
2023-01-08T05:12:45.897Z,100093.63
2023-01-08T05:15:12.304Z,100074.03
2023-01-08T05:17:38.732Z,100086.38
2023-01-08T05:20:05.524Z,100082.44
2023-01-08T05:22:32.102Z,100075.72
2023-01-08T05:24:58.577Z,100077.97
2023-01-08T05:27:24.990Z,100080.81
2023-01-08T05:29:51.798Z,100074.97
2023-01-08T05:32:19.046Z,100064.19
2023-01-08T05:34:46.000Z,100070.91
2023-01-08T05:37:12.799Z,100069.75
2023-01-08T05:39:39.271Z,100064.44
2023-01-08T05:42:05.740Z,100060.50
2023-01-08T05:44:32.185Z,100064.31
2023-01-08T05:46:58.775Z,100062.63
2023-01-08T05:49:25.310Z,100055.59
2023-01-08T05:51:51.740Z,100051.03
2023-01-08T05:54:18.378Z,100051.97
2023-01-08T05:56:44.838Z,100054.81
2023-01-08T05:59:12.424Z,100050.81
2023-01-08T06:01:39.156Z,100052.84
2023-01-08T06:04:05.897Z,100050.91
2023-01-08T06:06:32.410Z,100045.16
2023-01-08T06:08:58.912Z,100045.34
2023-01-08T06:11:25.341Z,100050.38
2023-01-08T06:13:51.901Z,100045.38
2023-01-08T06:16:18.521Z,100041.56
2023-01-08T06:18:45.017Z,100040.34
2023-01-08T06:21:13.291Z,100029.16
2023-01-08T06:23:40.599Z,100033.59
2023-01-08T06:26:07.334Z,100038.09
2023-01-08T06:28:33.934Z,100032.84
2023-01-08T06:31:02.050Z,100021.97
2023-01-08T06:33:29.730Z,100035.06
2023-01-08T06:36:01.105Z,100037.03
2023-01-08T06:38:30.249Z,100026.16
2023-01-08T06:40:56.681Z,100028.22
2023-01-08T06:43:24.065Z,100035.50
2023-01-08T06:45:58.435Z,100029.59
2023-01-08T06:48:25.598Z,100022.84
2023-01-08T06:50:52.335Z,100030.25
2023-01-08T06:53:19.197Z,100025.25
2023-01-08T06:55:45.632Z,100035.72
2023-01-08T06:58:12.890Z,100035.44
2023-01-08T07:00:39.891Z,100031.25
2023-01-08T07:03:06.697Z,100035.44
2023-01-08T07:05:33.269Z,100037.00
2023-01-08T07:07:59.692Z,100031.81
2023-01-08T07:10:27.526Z,100020.22
2023-01-08T07:12:53.958Z,100021.75
2023-01-08T07:15:20.412Z,100025.66
2023-01-08T07:17:46.919Z,100028.75
2023-01-08T07:20:13.570Z,100028.19
2023-01-08T07:22:40.179Z,100027.19
2023-01-08T07:25:07.357Z,100029.00
2023-01-08T07:27:33.819Z,100042.72
2023-01-08T07:30:00.290Z,100039.66
2023-01-08T07:32:26.983Z,100040.50
2023-01-08T07:34:54.697Z,100054.31
2023-01-08T07:37:21.201Z,100050.25
2023-01-08T07:39:47.847Z,100046.66
2023-01-08T07:42:14.641Z,100045.78
2023-01-08T07:44:41.195Z,100054.19
2023-01-08T07:47:07.670Z,100045.94
2023-01-08T07:49:34.095Z,100046.91
2023-01-08T07:52:00.555Z,100041.34
2023-01-08T07:54:27.075Z,100042.16
2023-01-08T07:56:56.712Z,100039.63
2023-01-08T07:59:23.177Z,100034.78
2023-01-08T08:01:49.709Z,100041.31
2023-01-08T08:04:16.477Z,100030.41
2023-01-08T08:06:42.942Z,100031.53
2023-01-08T08:09:09.401Z,100024.69
2023-01-08T08:11:35.949Z,100029.72
2023-01-08T08:14:02.372Z,100029.84
2023-01-08T08:16:28.839Z,100039.63
2023-01-08T08:18:57.582Z,100042.00
2023-01-08T08:21:24.138Z,100030.97
2023-01-08T08:23:50.613Z,100035.56
2023-01-08T08:26:17.271Z,100029.00
2023-01-08T08:28:43.730Z,100028.16
2023-01-08T08:31:10.289Z,100023.84
2023-01-08T08:33:36.829Z,100008.88
2023-01-08T08:36:03.461Z,100014.75
2023-01-08T08:38:29.951Z,100001.72
2023-01-08T08:40:56.475Z,100003.56
2023-01-08T08:43:22.979Z,100006.34
2023-01-08T08:45:49.398Z,100003.28
2023-01-08T08:48:16.855Z,100007.19
2023-01-08T08:50:43.401Z,100003.72
2023-01-08T08:53:10.500Z,100002.72
2023-01-08T08:55:36.995Z,99997.97
2023-01-08T08:58:13.603Z,100003.56
2023-01-08T09:00:43.210Z,99995.25
2023-01-08T09:03:14.891Z,99997.13
2023-01-08T09:05:43.056Z,99983.94
2023-01-08T09:08:10.010Z,99983.94
2023-01-08T09:10:38.213Z,99970.50
2023-01-08T09:13:04.886Z,99959.28
2023-01-08T09:15:31.396Z,99952.97
2023-01-08T09:17:58.077Z,99957.94
2023-01-08T09:20:26.162Z,99967.34
2023-01-08T09:22:52.660Z,99963.41
2023-01-08T09:25:19.122Z,99959.81
2023-01-08T09:27:45.922Z,99978.50
2023-01-08T09:30:12.781Z,99983.88
2023-01-08T09:32:39.348Z,99992.31
2023-01-08T09:35:06.497Z,99992.88
2023-01-08T09:37:32.948Z,99982.38
2023-01-08T09:40:02.575Z,99988.41
2023-01-08T09:42:30.958Z,99996.22
2023-01-08T09:45:00.245Z,100003.94
2023-01-08T09:47:36.630Z,100007.72
2023-01-08T09:50:06.837Z,100017.66
2023-01-08T09:52:33.333Z,100021.28
2023-01-08T09:55:00.786Z,100018.38
2023-01-08T09:57:28.865Z,100020.06
2023-01-08T09:59:55.426Z,100010.25
2023-01-08T10:02:25.412Z,100002.28
2023-01-08T10:04:56.315Z,99998.44
2023-01-08T10:07:25.716Z,99992.03
2023-01-08T10:09:53.342Z,99998.22
2023-01-08T10:12:38.735Z,99988.72
2023-01-08T10:15:08.510Z,99990.09
2023-01-08T10:17:39.159Z,99977.97
2023-01-08T10:20:16.851Z,99975.72
2023-01-08T10:22:44.052Z,99968.25
2023-01-08T10:25:16.860Z,99965.63
2023-01-08T10:27:59.988Z,99972.16
2023-01-08T10:30:37.013Z,99965.34
2023-01-08T10:33:06.788Z,99964.41
2023-01-08T10:35:42.141Z,99959.09
2023-01-08T10:38:24.785Z,99961.03
2023-01-08T10:40:51.970Z,99958.50
2023-01-08T10:43:20.915Z,99943.41
2023-01-08T10:46:03.078Z,99950.69
2023-01-08T10:48:36.992Z,99958.81
2023-01-08T10:51:13.414Z,99958.53
2023-01-08T10:53:41.188Z,99953.75
2023-01-08T10:56:19.733Z,99947.47
2023-01-08T10:58:46.269Z,99958.53
2023-01-08T11:01:28.686Z,99951.53
2023-01-08T11:04:05.007Z,99947.75
2023-01-08T11:06:34.188Z,99947.06
2023-01-08T11:09:03.485Z,99929.53
2023-01-08T11:11:37.830Z,99935.28
2023-01-08T11:14:14.322Z,99933.72
2023-01-08T11:16:42.214Z,99925.44
2023-01-08T11:19:22.819Z,99925.97
2023-01-08T11:22:16.596Z,99923.59
2023-01-08T11:24:43.878Z,99915.63
2023-01-08T11:27:34.808Z,99908.03
2023-01-08T11:30:14.212Z,99899.75
2023-01-08T11:32:40.635Z,99889.28
2023-01-08T11:35:20.730Z,99891.94
2023-01-08T11:37:53.712Z,99890.78
2023-01-08T11:40:38.517Z,99893.44
2023-01-08T11:43:37.123Z,99901.44
2023-01-08T11:46:28.540Z,99911.72
2023-01-08T11:49:03.585Z,99897.41
2023-01-08T11:51:33.778Z,99890.44
2023-01-08T11:54:44.902Z,99879.78
2023-01-08T11:57:17.585Z,99883.78
2023-01-08T12:00:02.661Z,99889.44
2023-01-08T12:02:54.576Z,99879.44
2023-01-08T12:05:20.941Z,99860.09
2023-01-08T12:08:07.650Z,99862.88
2023-01-08T12:11:02.452Z,99859.91
2023-01-08T12:14:13.273Z,99848.91
2023-01-08T12:16:59.754Z,99850.59
2023-01-08T12:19:45.262Z,99858.72
2023-01-08T12:22:32.265Z,99855.09
2023-01-08T12:25:04.461Z,99847.78
2023-01-08T12:27:56.220Z,99852.28
2023-01-08T12:30:54.408Z,99840.66
2023-01-08T12:33:29.707Z,99832.59
2023-01-08T12:36:00.073Z,99841.00
2023-01-08T12:38:32.216Z,99849.16
2023-01-08T12:41:04.810Z,99853.25
2023-01-08T12:43:41.017Z,99844.78
2023-01-08T12:46:12.218Z,99852.66
2023-01-08T12:48:39.752Z,99843.03
2023-01-08T12:51:24.106Z,99845.03
2023-01-08T12:54:16.636Z,99836.72
2023-01-08T12:56:55.330Z,99833.28
2023-01-08T12:59:40.308Z,99836.00
2023-01-08T13:02:25.843Z,99838.75
2023-01-08T13:04:52.430Z,99834.50
2023-01-08T13:07:26.762Z,99823.41
2023-01-08T13:10:08.273Z,99826.34
2023-01-08T13:12:39.453Z,99828.78
2023-01-08T13:15:08.360Z,99828.09
2023-01-08T13:17:37.613Z,99824.50
2023-01-08T13:20:06.982Z,99829.94
2023-01-08T13:22:36.819Z,99828.69
2023-01-08T13:25:15.158Z,99824.69
2023-01-08T13:27:42.341Z,99817.00
2023-01-08T13:30:42.196Z,99810.59
2023-01-08T13:33:33.527Z,99812.69
2023-01-08T13:36:16.949Z,99808.84
2023-01-08T13:38:44.989Z,99814.63
2023-01-08T13:41:57.804Z,99808.31
2023-01-08T13:44:30.043Z,99814.94
2023-01-08T13:46:59.113Z,99808.00
2023-01-08T13:49:37.572Z,99813.16
2023-01-08T13:52:05.407Z,99809.53
2023-01-08T13:54:40.280Z,99800.19
2023-01-08T13:57:16.237Z,99811.88
2023-01-08T13:59:48.784Z,99805.63
2023-01-08T14:02:29.623Z,99794.47
2023-01-08T14:04:58.126Z,99799.47
2023-01-08T14:07:25.108Z,99798.66
2023-01-08T14:09:52.340Z,99786.41
2023-01-08T14:12:24.271Z,99799.16
2023-01-08T14:14:58.930Z,99788.47
2023-01-08T14:17:31.384Z,99787.16
2023-01-08T14:19:59.036Z,99786.00
2023-01-08T14:22:33.140Z,99789.59
2023-01-08T14:25:08.626Z,99790.97
2023-01-08T14:27:35.299Z,99790.06
2023-01-08T14:30:02.139Z,99782.00
2023-01-08T14:32:30.780Z,99786.44
2023-01-08T14:34:59.583Z,99790.34
2023-01-08T14:37:26.150Z,99792.22
2023-01-08T14:39:54.735Z,99793.50
2023-01-08T14:42:49.567Z,99786.00
2023-01-08T14:45:39.675Z,99791.75
2023-01-08T14:48:14.826Z,99792.03
2023-01-08T14:50:54.438Z,99796.44
2023-01-08T14:53:46.132Z,99789.50
2023-01-08T14:56:14.923Z,99785.28
2023-01-08T14:58:44.698Z,99781.28
2023-01-08T15:01:24.633Z,99781.09
2023-01-08T15:03:52.739Z,99775.31
2023-01-08T15:06:29.802Z,99776.91
2023-01-08T15:08:56.557Z,99771.56
2023-01-08T15:11:26.287Z,99774.94
2023-01-08T15:13:54.156Z,99774.25
2023-01-08T15:16:35.048Z,99773.13
2023-01-08T15:19:32.708Z,99783.84
2023-01-08T15:22:01.078Z,99785.03
2023-01-08T15:24:39.251Z,99776.56
2023-01-08T15:27:12.258Z,99778.94
2023-01-08T15:29:46.961Z,99775.47
2023-01-08T15:32:16.147Z,99770.03
2023-01-08T15:34:43.968Z,99766.13
2023-01-08T15:37:10.932Z,99774.97
2023-01-08T15:39:37.457Z,99776.94
2023-01-08T15:42:42.552Z,99772.94
2023-01-08T15:45:21.228Z,99779.00
2023-01-08T15:47:47.709Z,99777.84
2023-01-08T15:50:14.773Z,99780.25
2023-01-08T15:52:43.451Z,99782.25
2023-01-08T15:55:18.490Z,99797.72
2023-01-08T15:57:45.326Z,99783.94
2023-01-08T16:00:14.083Z,99786.25
2023-01-08T16:02:46.913Z,99778.78
2023-01-08T16:05:14.310Z,99780.38
2023-01-08T16:07:40.767Z,99778.22
2023-01-08T16:10:07.891Z,99778.22
2023-01-08T16:12:35.092Z,99777.72
2023-01-08T16:15:01.634Z,99783.78
2023-01-08T16:17:31.666Z,99786.69
2023-01-08T16:19:58.137Z,99786.31
2023-01-08T16:22:24.636Z,99781.09
2023-01-08T16:24:51.499Z,99786.63
2023-01-08T16:27:18.029Z,99775.44
2023-01-08T16:29:44.553Z,99773.13
2023-01-08T16:32:11.033Z,99767.72
2023-01-08T16:34:37.648Z,99756.16
2023-01-08T16:37:04.160Z,99765.75
2023-01-08T16:39:32.244Z,99758.75
2023-01-08T16:41:58.750Z,99754.34
2023-01-08T16:44:28.626Z,99758.75
2023-01-08T16:46:56.069Z,99766.69
2023-01-08T16:49:22.621Z,99761.94
2023-01-08T16:51:49.174Z,99749.47
2023-01-08T16:54:16.692Z,99749.78
2023-01-08T16:56:43.207Z,99746.53
2023-01-08T16:59:22.250Z,99739.84
2023-01-08T17:01:50.111Z,99736.19
2023-01-08T17:04:16.770Z,99726.59
2023-01-08T17:06:43.263Z,99736.72
2023-01-08T17:09:11.657Z,99730.88
2023-01-08T17:11:38.538Z,99734.22
2023-01-08T17:14:05.067Z,99733.00
2023-01-08T17:16:31.505Z,99726.09
2023-01-08T17:18:58.119Z,99719.88
2023-01-08T17:21:24.579Z,99722.94
2023-01-08T17:23:51.125Z,99721.66
2023-01-08T17:26:18.091Z,99722.38
2023-01-08T17:28:45.581Z,99709.31
2023-01-08T17:31:15.219Z,99711.28
2023-01-08T17:33:41.960Z,99713.91
2023-01-08T17:36:16.813Z,99710.25
2023-01-08T17:38:43.537Z,99704.56
2023-01-08T17:41:10.898Z,99708.75
2023-01-08T17:43:39.089Z,99717.38
2023-01-08T17:46:07.072Z,99709.88
2023-01-08T17:48:34.739Z,99693.69
2023-01-08T17:51:07.937Z,99688.34
2023-01-08T17:53:35.741Z,99694.09
2023-01-08T17:56:05.651Z,99691.31
2023-01-08T17:58:32.124Z,99690.69
2023-01-08T18:00:58.577Z,99690.03
2023-01-08T18:03:25.070Z,99695.63
2023-01-08T18:05:51.794Z,99697.31
2023-01-08T18:08:18.296Z,99701.66
2023-01-08T18:10:44.856Z,99691.22
2023-01-08T18:13:11.392Z,99696.41
2023-01-08T18:15:37.853Z,99685.25
2023-01-08T18:18:04.360Z,99696.50
2023-01-08T18:20:30.926Z,99691.09
2023-01-08T18:22:57.370Z,99692.69
2023-01-08T18:25:23.885Z,99690.44
2023-01-08T18:27:50.424Z,99697.16
2023-01-08T18:30:17.125Z,99699.28
2023-01-08T18:32:43.714Z,99698.00
2023-01-08T18:35:12.807Z,99693.41
2023-01-08T18:37:39.248Z,99693.47
2023-01-08T18:40:06.293Z,99682.97
2023-01-08T18:42:33.227Z,99674.50
2023-01-08T18:45:00.519Z,99666.34
2023-01-08T18:47:28.722Z,99670.03
2023-01-08T18:49:58.468Z,99678.91
2023-01-08T18:52:25.266Z,99666.44
2023-01-08T18:54:53.155Z,99667.19
2023-01-08T18:57:19.670Z,99671.19
2023-01-08T18:59:48.792Z,99664.06
2023-01-08T19:02:24.314Z,99661.91
2023-01-08T19:04:51.023Z,99659.59
2023-01-08T19:07:18.034Z,99655.84
2023-01-08T19:09:44.573Z,99663.91
2023-01-08T19:12:11.322Z,99657.59
2023-01-08T19:14:38.131Z,99650.59
2023-01-08T19:17:04.946Z,99655.00
2023-01-08T19:19:31.444Z,99657.78
2023-01-08T19:21:57.969Z,99648.34
2023-01-08T19:24:24.461Z,99648.56
2023-01-08T19:26:51.039Z,99650.81
2023-01-08T19:29:17.654Z,99643.94
2023-01-08T19:31:44.419Z,99649.56
2023-01-08T19:34:11.179Z,99636.44
2023-01-08T19:36:37.646Z,99652.09
2023-01-08T19:39:05.324Z,99646.63
2023-01-08T19:41:50.565Z,99654.75
2023-01-08T19:44:16.976Z,99650.47
2023-01-08T19:46:43.465Z,99658.94
2023-01-08T19:49:09.936Z,99660.59
2023-01-08T19:51:36.402Z,99646.97
2023-01-08T19:54:02.916Z,99646.41
2023-01-08T19:56:29.644Z,99639.31
2023-01-08T19:58:56.963Z,99647.81
2023-01-08T20:01:26.480Z,99638.28
2023-01-08T20:03:53.983Z,99632.75
2023-01-08T20:06:23.915Z,99617.91
2023-01-08T20:08:54.020Z,99622.28
2023-01-08T20:11:22.345Z,99616.84
2023-01-08T20:13:49.792Z,99619.81
2023-01-08T20:16:18.369Z,99616.31
2023-01-08T20:18:45.518Z,99621.03
2023-01-08T20:21:15.532Z,99621.22
2023-01-08T20:23:43.686Z,99613.09
2023-01-08T20:26:19.804Z,99606.56
2023-01-08T20:28:46.822Z,99602.09
2023-01-08T20:31:16.334Z,99607.69
2023-01-08T20:33:43.482Z,99602.19
2023-01-08T20:36:12.606Z,99606.50
2023-01-08T20:38:39.749Z,99603.75
2023-01-08T20:41:07.003Z,99597.53
2023-01-08T20:43:34.800Z,99597.22
2023-01-08T20:46:01.997Z,99597.31
2023-01-08T20:48:32.009Z,99586.16
2023-01-08T20:51:03.305Z,99591.22
2023-01-08T20:53:30.363Z,99586.53
2023-01-08T20:56:09.355Z,99582.75
2023-01-08T20:58:37.695Z,99583.97
2023-01-08T21:01:10.216Z,99578.59
2023-01-08T21:03:37.370Z,99583.53
2023-01-08T21:06:12.166Z,99584.66
2023-01-08T21:08:40.177Z,99579.44
2023-01-08T21:11:08.399Z,99586.19
2023-01-08T21:13:35.061Z,99574.19
2023-01-08T21:16:04.857Z,99577.03
2023-01-08T21:18:31.451Z,99578.22
2023-01-08T21:21:02.796Z,99576.41
2023-01-08T21:23:30.304Z,99576.66
2023-01-08T21:26:03.539Z,99570.84
2023-01-08T21:28:30.033Z,99556.56
2023-01-08T21:31:05.966Z,99565.25
2023-01-08T21:33:32.915Z,99548.09
2023-01-08T21:36:03.589Z,99550.69
2023-01-08T21:38:31.312Z,99556.84
2023-01-08T21:41:02.401Z,99563.25
2023-01-08T21:43:47.962Z,99559.34
2023-01-08T21:46:16.391Z,99551.22
2023-01-08T21:48:44.381Z,99551.09
2023-01-08T21:51:33.909Z,99545.16
2023-01-08T21:54:00.332Z,99538.59
2023-01-08T21:56:28.425Z,99536.94
2023-01-08T21:58:54.885Z,99517.03
2023-01-08T22:01:21.513Z,99523.72
2023-01-08T22:03:48.209Z,99518.56
2023-01-08T22:06:14.678Z,99520.69
2023-01-08T22:08:41.139Z,99517.44
2023-01-08T22:11:09.462Z,99503.66
2023-01-08T22:13:36.571Z,99493.75
2023-01-08T22:16:08.465Z,99493.28
2023-01-08T22:18:35.619Z,99488.88
2023-01-08T22:21:10.560Z,99492.69
2023-01-08T22:23:37.453Z,99502.31
2023-01-08T22:26:09.831Z,99505.41
2023-01-08T22:28:39.659Z,99493.63
2023-01-08T22:31:07.736Z,99498.09
2023-01-08T22:33:34.460Z,99490.28
2023-01-08T22:36:05.506Z,99489.84
2023-01-08T22:38:32.117Z,99493.09
2023-01-08T22:40:58.687Z,99486.19
2023-01-08T22:43:25.673Z,99485.75
2023-01-08T22:45:57.769Z,99485.06
2023-01-08T22:48:24.878Z,99478.81
2023-01-08T22:50:52.075Z,99486.53
2023-01-08T22:53:19.139Z,99475.13
2023-01-08T22:55:47.512Z,99480.94
2023-01-08T22:58:15.580Z,99474.28
2023-01-08T23:00:42.506Z,99467.41
2023-01-08T23:03:09.000Z,99460.69
2023-01-08T23:05:35.988Z,99456.06
2023-01-08T23:08:02.503Z,99457.81
2023-01-08T23:10:29.365Z,99461.81
2023-01-08T23:12:56.004Z,99459.34
2023-01-08T23:15:23.295Z,99459.78
2023-01-08T23:17:52.662Z,99457.44
2023-01-08T23:20:20.429Z,99447.22
2023-01-08T23:22:47.886Z,99441.91
2023-01-08T23:25:14.736Z,99441.38
2023-01-08T23:27:41.328Z,99439.44
2023-01-08T23:30:08.544Z,99436.94
2023-01-08T23:32:35.003Z,99432.56
2023-01-08T23:35:01.679Z,99431.00
2023-01-08T23:37:28.109Z,99424.34
2023-01-08T23:39:54.624Z,99426.44
2023-01-08T23:42:21.266Z,99424.09
2023-01-08T23:44:49.543Z,99423.63
2023-01-08T23:47:16.054Z,99416.84
2023-01-08T23:49:42.488Z,99418.50
2023-01-08T23:52:08.990Z,99411.63
2023-01-08T23:54:35.908Z,99415.47
2023-01-08T23:57:02.990Z,99407.44
2023-01-08T23:59:29.451Z,99413.50
